Watsonville, CA

12:57 PM PST en Enero 27, 2015 (GMT -0800)
Tierra Del Sol, aromas | Change Station
CLOSE
Current Station
Estación meteorológica personal
Location: Aromas, CA
Altura: 338 ft
Estaciones meteorológicas cercanas

Alt 338 ft 36.88 °N, 121.67 °W | Updated 14 minutes ago

Nublado
Nublado
65.7 ° F
Sensación térmica 65.7 ° F
N
1.1
Viento Variable Viento desde Oeste

Hoy
Alta -- | Baja -- ° F
--% Posibilidad de precipitaciones
Ayer
Alta -- | Baja -- ° F
Precip. -- pul
7:13 AM 5:26 PM
Cuarto creciente, 57% visible
Presión 30.22 pul
Visibilidad 10.0 Millas
Nubes Nublado 10000 ft
Punto de rocío 50 ° F
Humedad 57%
Precipitaciones 0.00 pul
Espesor de la nieve No disponible.
UV 1 de una escala de 12
Polen 6.80 de una escala de 12
Calidad del aire No disponible.
Flu Activity No disponible.
METAR KWVI 271953Z AUTO VRB03KT 10SM OVC100 17/10 A3022 RMK AO2 SLP232 T01720100

More Conditions Fewer Conditions

Presión 30.22 pul
Visibilidad 10.0 Millas
Nubes Nublado 10000 ft
Punto de rocío 50 ° F
Humedad 57%
Precipitaciones 0.00 pul
Espesor de la nieve No disponible.
UV 1 de una escala de 12
Polen 6.80 de una escala de 12
Calidad del aire No disponible.
Flu Activity No disponible.
METAR KWVI 271953Z AUTO VRB03KT 10SM OVC100 17/10 A3022 RMK AO2 SLP232 T01720100

More Conditions Fewer Conditions

10-Day Weather Forecast

Almanac

Astronomía

Jan. 27, 2015 Salida Puesta
Hora real
Crepúsculo civil
Crepúsculo náutico
Crepúsculo astronómico
Luna
Horas de luz
Horas de luz
Tomorrow will be .
, % of the Moon is Illuminated

Extremos de hoy

Máximos del estado Bajos del estado

Community

WunderPhotos

Upload Photos

1,790,900 ¡fotos cargadas!

WunderBlogs® & News

Nearby

Calidad del aire

  Calidad del aire Índice AQ Contaminante
Not available.

Grosos de nieve

Estación Profundido Altura

Actividad de terremotos

Ciudad Distance Mag. Tiempo y dato
Magnitud mínima muestra es 2,5.

Temperaturas de aguas costeras

Lugar Temperatura

Estaciones meteorológicas cercanas